sensor_id;sensor_type;location;lat;lon;timestamp;pressure;altitude;pressure_sealevel;temperature;humidity
24996;BME280;13016;52.162;21.034;2023-01-28T00:01:44;101150.73;;;6.93;56.93
24996;BME280;13016;52.162;21.034;2023-01-28T00:04:09;101152.80;;;6.89;56.87
24996;BME280;13016;52.162;21.034;2023-01-28T00:06:35;101156.27;;;6.85;57.00
24996;BME280;13016;52.162;21.034;2023-01-28T00:09:00;101156.60;;;6.90;56.95
24996;BME280;13016;52.162;21.034;2023-01-28T00:11:25;101163.52;;;6.83;56.89
24996;BME280;13016;52.162;21.034;2023-01-28T00:13:51;101163.96;;;6.86;57.25
24996;BME280;13016;52.162;21.034;2023-01-28T00:16:17;101159.49;;;6.93;57.28
24996;BME280;13016;52.162;21.034;2023-01-28T00:18:44;101162.96;;;7.00;57.19
24996;BME280;13016;52.162;21.034;2023-01-28T00:21:11;101164.52;;;7.05;56.98
24996;BME280;13016;52.162;21.034;2023-01-28T00:23:38;101163.89;;;6.98;56.81
24996;BME280;13016;52.162;21.034;2023-01-28T00:26:12;101162.58;;;6.90;56.86
24996;BME280;13016;52.162;21.034;2023-01-28T00:28:38;101163.89;;;6.88;57.13
24996;BME280;13016;52.162;21.034;2023-01-28T00:31:07;101157.70;;;6.89;57.20
24996;BME280;13016;52.162;21.034;2023-01-28T00:33:33;101158.39;;;6.84;57.18
24996;BME280;13016;52.162;21.034;2023-01-28T00:35:59;101161.73;;;6.84;57.20
24996;BME280;13016;52.162;21.034;2023-01-28T00:38:25;101159.06;;;6.80;57.23
24996;BME280;13016;52.162;21.034;2023-01-28T00:40:51;101164.52;;;6.85;57.41
24996;BME280;13016;52.162;21.034;2023-01-28T00:43:16;101161.15;;;6.91;57.32
24996;BME280;13016;52.162;21.034;2023-01-28T00:45:41;101159.09;;;6.95;57.30
24996;BME280;13016;52.162;21.034;2023-01-28T00:48:06;101160.17;;;6.89;57.12
24996;BME280;13016;52.162;21.034;2023-01-28T00:50:32;101163.37;;;6.98;57.46
24996;BME280;13016;52.162;21.034;2023-01-28T00:52:57;101163.30;;;6.95;57.14
24996;BME280;13016;52.162;21.034;2023-01-28T00:55:22;101161.94;;;6.99;57.32
24996;BME280;13016;52.162;21.034;2023-01-28T00:57:47;101159.69;;;7.04;57.09
24996;BME280;13016;52.162;21.034;2023-01-28T01:00:13;101157.77;;;7.08;57.25
24996;BME280;13016;52.162;21.034;2023-01-28T01:02:38;101163.77;;;7.17;57.25
24996;BME280;13016;52.162;21.034;2023-01-28T01:05:04;101159.13;;;7.09;56.83
24996;BME280;13016;52.162;21.034;2023-01-28T01:07:30;101164.11;;;6.97;56.84
24996;BME280;13016;52.162;21.034;2023-01-28T01:09:55;101156.15;;;6.83;57.11
24996;BME280;13016;52.162;21.034;2023-01-28T01:12:20;101161.26;;;6.82;57.34
24996;BME280;13016;52.162;21.034;2023-01-28T01:14:46;101158.94;;;6.83;57.22
24996;BME280;13016;52.162;21.034;2023-01-28T01:17:11;101156.39;;;6.86;57.24
24996;BME280;13016;52.162;21.034;2023-01-28T01:19:36;101154.58;;;6.78;57.10
24996;BME280;13016;52.162;21.034;2023-01-28T01:22:01;101158.70;;;6.80;57.50
24996;BME280;13016;52.162;21.034;2023-01-28T01:24:27;101162.16;;;6.87;57.47
24996;BME280;13016;52.162;21.034;2023-01-28T01:26:52;101160.86;;;6.94;57.46
24996;BME280;13016;52.162;21.034;2023-01-28T01:29:17;101158.89;;;7.06;57.39
24996;BME280;13016;52.162;21.034;2023-01-28T01:31:42;101158.66;;;7.12;57.15
24996;BME280;13016;52.162;21.034;2023-01-28T01:34:08;101159.27;;;7.15;57.19
24996;BME280;13016;52.162;21.034;2023-01-28T01:36:33;101157.08;;;7.23;57.05
24996;BME280;13016;52.162;21.034;2023-01-28T01:38:59;101150.04;;;7.18;56.71
24996;BME280;13016;52.162;21.034;2023-01-28T01:41:31;101150.50;;;7.20;56.75
24996;BME280;13016;52.162;21.034;2023-01-28T01:43:58;101150.66;;;7.25;56.86
24996;BME280;13016;52.162;21.034;2023-01-28T01:46:44;101148.42;;;7.29;57.01
24996;BME280;13016;52.162;21.034;2023-01-28T01:49:25;101152.05;;;7.31;56.59
24996;BME280;13016;52.162;21.034;2023-01-28T01:51:54;101155.30;;;7.28;56.61
24996;BME280;13016;52.162;21.034;2023-01-28T01:54:23;101156.12;;;7.25;56.55
24996;BME280;13016;52.162;21.034;2023-01-28T01:56:52;101163.48;;;7.15;56.60
24996;BME280;13016;52.162;21.034;2023-01-28T01:59:22;101158.59;;;7.15;56.74
24996;BME280;13016;52.162;21.034;2023-01-28T02:01:50;101155.67;;;7.18;56.58
24996;BME280;13016;52.162;21.034;2023-01-28T02:04:28;101152.73;;;7.16;56.82
24996;BME280;13016;52.162;21.034;2023-01-28T02:06:55;101154.36;;;7.30;56.80
24996;BME280;13016;52.162;21.034;2023-01-28T02:11:49;101163.15;;;7.20;56.30
24996;BME280;13016;52.162;21.034;2023-01-28T02:14:16;101162.49;;;7.23;56.60
24996;BME280;13016;52.162;21.034;2023-01-28T02:16:42;101158.23;;;7.25;56.54
24996;BME280;13016;52.162;21.034;2023-01-28T02:19:08;101161.96;;;7.18;56.48
24996;BME280;13016;52.162;21.034;2023-01-28T02:21:46;101164.71;;;7.20;56.50
24996;BME280;13016;52.162;21.034;2023-01-28T02:24:43;101161.90;;;7.25;56.57
24996;BME280;13016;52.162;21.034;2023-01-28T02:30:24;101162.04;;;7.26;56.49
24996;BME280;13016;52.162;21.034;2023-01-28T02:33:16;101159.81;;;7.35;56.56
24996;BME280;13016;52.162;21.034;2023-01-28T02:35:51;101155.13;;;7.33;56.33
24996;BME280;13016;52.162;21.034;2023-01-28T02:38:22;101157.02;;;7.30;56.18
24996;BME280;13016;52.162;21.034;2023-01-28T02:40:53;101161.43;;;7.34;56.36
24996;BME280;13016;52.162;21.034;2023-01-28T02:48:42;101163.56;;;7.42;56.41
24996;BME280;13016;52.162;21.034;2023-01-28T02:54:13;101162.19;;;7.37;56.49
24996;BME280;13016;52.162;21.034;2023-01-28T02:59:55;101166.71;;;7.38;56.51
24996;BME280;13016;52.162;21.034;2023-01-28T03:02:38;101169.67;;;7.29;56.48
24996;BME280;13016;52.162;21.034;2023-01-28T03:05:28;101169.15;;;7.29;56.86
24996;BME280;13016;52.162;21.034;2023-01-28T03:07:56;101167.10;;;7.32;56.90
24996;BME280;13016;52.162;21.034;2023-01-28T03:10:25;101163.91;;;7.33;56.96
24996;BME280;13016;52.162;21.034;2023-01-28T03:12:54;101166.17;;;7.14;57.51
24996;BME280;13016;52.162;21.034;2023-01-28T03:15:25;101158.33;;;7.02;57.90
24996;BME280;13016;52.162;21.034;2023-01-28T03:17:57;101164.34;;;6.95;58.08
24996;BME280;13016;52.162;21.034;2023-01-28T03:20:33;101163.82;;;6.90;58.49
24996;BME280;13016;52.162;21.034;2023-01-28T03:23:04;101165.73;;;6.84;58.81
24996;BME280;13016;52.162;21.034;2023-01-28T03:25:33;101163.80;;;6.85;59.00
24996;BME280;13016;52.162;21.034;2023-01-28T03:28:02;101165.09;;;6.78;59.26
24996;BME280;13016;52.162;21.034;2023-01-28T03:30:39;101163.92;;;6.76;59.66
24996;BME280;13016;52.162;21.034;2023-01-28T03:33:06;101162.77;;;6.79;59.61
24996;BME280;13016;52.162;21.034;2023-01-28T03:35:33;101161.60;;;6.77;59.90
24996;BME280;13016;52.162;21.034;2023-01-28T03:38:00;101160.59;;;6.82;59.95
24996;BME280;13016;52.162;21.034;2023-01-28T03:40:26;101161.91;;;6.89;59.83
24996;BME280;13016;52.162;21.034;2023-01-28T03:42:51;101164.13;;;6.96;59.87
24996;BME280;13016;52.162;21.034;2023-01-28T03:45:16;101162.08;;;6.95;59.66
24996;BME280;13016;52.162;21.034;2023-01-28T03:47:42;101161.54;;;6.85;59.52
24996;BME280;13016;52.162;21.034;2023-01-28T03:50:16;101153.83;;;6.79;59.55
24996;BME280;13016;52.162;21.034;2023-01-28T03:52:41;101160.44;;;6.80;59.66
24996;BME280;13016;52.162;21.034;2023-01-28T03:55:07;101159.59;;;6.80;59.67
24996;BME280;13016;52.162;21.034;2023-01-28T03:57:32;101159.83;;;6.78;59.60
24996;BME280;13016;52.162;21.034;2023-01-28T03:59:58;101161.15;;;6.54;59.77
24996;BME280;13016;52.162;21.034;2023-01-28T04:02:23;101161.73;;;6.57;59.76
24996;BME280;13016;52.162;21.034;2023-01-28T04:04:48;101157.67;;;6.58;59.59
24996;BME280;13016;52.162;21.034;2023-01-28T04:07:14;101158.81;;;6.61;59.65
24996;BME280;13016;52.162;21.034;2023-01-28T04:09:39;101158.36;;;6.64;59.63
24996;BME280;13016;52.162;21.034;2023-01-28T04:12:05;101158.66;;;6.66;59.57
24996;BME280;13016;52.162;21.034;2023-01-28T04:14:31;101159.91;;;6.60;59.57
24996;BME280;13016;52.162;21.034;2023-01-28T04:16:57;101159.73;;;6.65;59.71
24996;BME280;13016;52.162;21.034;2023-01-28T04:19:22;101160.10;;;6.70;59.51
24996;BME280;13016;52.162;21.034;2023-01-28T04:21:48;101159.65;;;6.73;59.51
24996;BME280;13016;52.162;21.034;2023-01-28T04:24:15;101159.95;;;6.80;59.36
24996;BME280;13016;52.162;21.034;2023-01-28T04:26:40;101161.16;;;6.75;59.16
24996;BME280;13016;52.162;21.034;2023-01-28T04:29:05;101162.00;;;6.70;59.15
24996;BME280;13016;52.162;21.034;2023-01-28T04:31:31;101165.53;;;6.54;59.25
24996;BME280;13016;52.162;21.034;2023-01-28T04:33:57;101165.66;;;6.55;59.47
24996;BME280;13016;52.162;21.034;2023-01-28T04:36:23;101164.52;;;6.58;59.51
24996;BME280;13016;52.162;21.034;2023-01-28T04:38:48;101165.73;;;6.69;59.38
24996;BME280;13016;52.162;21.034;2023-01-28T04:41:14;101162.09;;;6.78;59.15
24996;BME280;13016;52.162;21.034;2023-01-28T04:43:39;101167.90;;;6.78;58.96
24996;BME280;13016;52.162;21.034;2023-01-28T04:46:04;101171.77;;;6.72;58.76
24996;BME280;13016;52.162;21.034;2023-01-28T04:48:30;101171.10;;;6.71;59.00
24996;BME280;13016;52.162;21.034;2023-01-28T04:50:55;101172.45;;;6.73;58.82
24996;BME280;13016;52.162;21.034;2023-01-28T04:53:20;101172.09;;;6.68;58.79
24996;BME280;13016;52.162;21.034;2023-01-28T04:55:46;101172.53;;;6.65;58.87
24996;BME280;13016;52.162;21.034;2023-01-28T04:58:11;101170.73;;;6.55;58.94
24996;BME280;13016;52.162;21.034;2023-01-28T05:00:36;101175.20;;;6.53;59.17
24996;BME280;13016;52.162;21.034;2023-01-28T05:03:02;101175.60;;;6.46;59.16
24996;BME280;13016;52.162;21.034;2023-01-28T05:05:27;101176.43;;;6.36;59.39
24996;BME280;13016;52.162;21.034;2023-01-28T05:07:54;101172.26;;;6.35;59.59
24996;BME280;13016;52.162;21.034;2023-01-28T05:10:20;101177.16;;;6.40;59.27
24996;BME280;13016;52.162;21.034;2023-01-28T05:12:46;101176.80;;;6.30;59.52
24996;BME280;13016;52.162;21.034;2023-01-28T05:15:13;101178.31;;;6.38;59.46
24996;BME280;13016;52.162;21.034;2023-01-28T05:17:38;101181.98;;;6.49;59.21
24996;BME280;13016;52.162;21.034;2023-01-28T05:20:04;101186.20;;;6.54;59.00
24996;BME280;13016;52.162;21.034;2023-01-28T05:22:30;101179.29;;;6.46;58.92
24996;BME280;13016;52.162;21.034;2023-01-28T05:24:55;101176.13;;;6.57;59.14
24996;BME280;13016;52.162;21.034;2023-01-28T05:27:20;101172.67;;;6.66;59.04
24996;BME280;13016;52.162;21.034;2023-01-28T05:29:45;101180.94;;;6.70;58.75
24996;BME280;13016;52.162;21.034;2023-01-28T05:32:11;101185.38;;;6.79;58.79
24996;BME280;13016;52.162;21.034;2023-01-28T05:34:36;101184.71;;;6.83;58.53
24996;BME280;13016;52.162;21.034;2023-01-28T05:37:01;101185.83;;;6.82;58.43
24996;BME280;13016;52.162;21.034;2023-01-28T05:39:26;101187.83;;;6.79;58.20
24996;BME280;13016;52.162;21.034;2023-01-28T05:41:52;101184.43;;;6.81;58.29
24996;BME280;13016;52.162;21.034;2023-01-28T05:44:17;101186.69;;;6.82;58.21
24996;BME280;13016;52.162;21.034;2023-01-28T05:46:42;101187.50;;;6.84;58.31
24996;BME280;13016;52.162;21.034;2023-01-28T05:49:07;101187.41;;;6.92;58.10
24996;BME280;13016;52.162;21.034;2023-01-28T05:51:33;101186.53;;;6.93;58.10
24996;BME280;13016;52.162;21.034;2023-01-28T05:53:58;101188.20;;;6.89;57.90
24996;BME280;13016;52.162;21.034;2023-01-28T05:56:23;101192.08;;;6.84;58.06
24996;BME280;13016;52.162;21.034;2023-01-28T05:58:48;101193.93;;;6.86;58.05
24996;BME280;13016;52.162;21.034;2023-01-28T06:01:14;101187.42;;;6.92;58.07
24996;BME280;13016;52.162;21.034;2023-01-28T06:03:39;101189.94;;;6.96;58.01
24996;BME280;13016;52.162;21.034;2023-01-28T06:06:05;101191.91;;;6.94;57.82
24996;BME280;13016;52.162;21.034;2023-01-28T06:08:30;101191.82;;;6.92;58.06
24996;BME280;13016;52.162;21.034;2023-01-28T06:10:55;101194.45;;;6.86;57.96
24996;BME280;13016;52.162;21.034;2023-01-28T06:13:20;101200.58;;;6.81;58.06
24996;BME280;13016;52.162;21.034;2023-01-28T06:15:48;101201.77;;;6.82;57.99
24996;BME280;13016;52.162;21.034;2023-01-28T06:18:13;101200.79;;;6.75;58.10
24996;BME280;13016;52.162;21.034;2023-01-28T06:20:39;101207.23;;;6.87;58.27
24996;BME280;13016;52.162;21.034;2023-01-28T06:23:04;101210.85;;;6.99;57.92
24996;BME280;13016;52.162;21.034;2023-01-28T06:25:29;101208.80;;;7.19;57.45
24996;BME280;13016;52.162;21.034;2023-01-28T06:27:55;101210.55;;;7.24;57.34
24996;BME280;13016;52.162;21.034;2023-01-28T06:30:20;101208.24;;;7.25;57.05
24996;BME280;13016;52.162;21.034;2023-01-28T06:32:45;101216.42;;;7.22;57.03
24996;BME280;13016;52.162;21.034;2023-01-28T06:35:10;101215.04;;;7.21;57.08
24996;BME280;13016;52.162;21.034;2023-01-28T06:37:36;101216.80;;;7.16;57.07
24996;BME280;13016;52.162;21.034;2023-01-28T06:40:02;101221.75;;;7.10;56.98
24996;BME280;13016;52.162;21.034;2023-01-28T06:42:27;101221.08;;;7.14;57.05
24996;BME280;13016;52.162;21.034;2023-01-28T06:44:52;101220.49;;;7.16;56.85
24996;BME280;13016;52.162;21.034;2023-01-28T06:47:17;101218.83;;;7.13;57.02
24996;BME280;13016;52.162;21.034;2023-01-28T06:49:43;101223.79;;;7.11;57.22
24996;BME280;13016;52.162;21.034;2023-01-28T06:52:10;101226.98;;;7.21;57.18
24996;BME280;13016;52.162;21.034;2023-01-28T06:54:36;101226.98;;;7.11;56.89
24996;BME280;13016;52.162;21.034;2023-01-28T06:57:01;101230.90;;;7.04;57.09
24996;BME280;13016;52.162;21.034;2023-01-28T06:59:26;101238.02;;;7.06;57.35
24996;BME280;13016;52.162;21.034;2023-01-28T07:01:51;101234.43;;;7.14;57.37
24996;BME280;13016;52.162;21.034;2023-01-28T07:04:19;101239.11;;;7.20;57.31
24996;BME280;13016;52.162;21.034;2023-01-28T07:06:44;101240.41;;;7.13;57.51
24996;BME280;13016;52.162;21.034;2023-01-28T07:09:09;101244.33;;;7.16;57.48
24996;BME280;13016;52.162;21.034;2023-01-28T07:11:35;101249.09;;;7.00;57.65
24996;BME280;13016;52.162;21.034;2023-01-28T07:14:00;101249.98;;;6.99;57.80
24996;BME280;13016;52.162;21.034;2023-01-28T07:16:25;101250.48;;;7.06;57.89
24996;BME280;13016;52.162;21.034;2023-01-28T07:18:50;101251.02;;;7.11;57.87
24996;BME280;13016;52.162;21.034;2023-01-28T07:21:16;101249.71;;;7.13;57.73
24996;BME280;13016;52.162;21.034;2023-01-28T07:23:41;101249.48;;;7.09;57.78
24996;BME280;13016;52.162;21.034;2023-01-28T07:26:07;101247.38;;;7.15;57.80
24996;BME280;13016;52.162;21.034;2023-01-28T07:28:33;101247.92;;;7.19;57.81
24996;BME280;13016;52.162;21.034;2023-01-28T07:30:59;101249.27;;;7.10;57.83
24996;BME280;13016;52.162;21.034;2023-01-28T07:33:26;101249.55;;;7.12;58.12
24996;BME280;13016;52.162;21.034;2023-01-28T07:35:52;101249.04;;;7.23;57.96
24996;BME280;13016;52.162;21.034;2023-01-28T07:38:19;101250.25;;;7.28;57.94
24996;BME280;13016;52.162;21.034;2023-01-28T07:40:45;101253.38;;;7.29;57.91
24996;BME280;13016;52.162;21.034;2023-01-28T07:43:10;101256.05;;;7.28;57.80
24996;BME280;13016;52.162;21.034;2023-01-28T07:45:36;101256.27;;;7.32;57.76
24996;BME280;13016;52.162;21.034;2023-01-28T07:48:05;101252.29;;;7.30;57.73
24996;BME280;13016;52.162;21.034;2023-01-28T07:50:32;101257.80;;;7.28;57.86
24996;BME280;13016;52.162;21.034;2023-01-28T07:53:16;101258.72;;;7.22;58.03
24996;BME280;13016;52.162;21.034;2023-01-28T07:55:45;101256.73;;;7.24;58.12
24996;BME280;13016;52.162;21.034;2023-01-28T08:01:08;101251.86;;;7.37;58.24
24996;BME280;13016;52.162;21.034;2023-01-28T08:03:33;101257.00;;;7.26;58.15
24996;BME280;13016;52.162;21.034;2023-01-28T08:05:59;101255.52;;;7.17;58.65
24996;BME280;13016;52.162;21.034;2023-01-28T08:08:25;101250.84;;;7.21;58.72
24996;BME280;13016;52.162;21.034;2023-01-28T08:10:51;101250.98;;;7.17;58.64
24996;BME280;13016;52.162;21.034;2023-01-28T08:13:17;101257.74;;;7.08;58.49
24996;BME280;13016;52.162;21.034;2023-01-28T08:15:47;101256.08;;;7.06;58.56
24996;BME280;13016;52.162;21.034;2023-01-28T08:18:14;101253.03;;;7.18;58.46
24996;BME280;13016;52.162;21.034;2023-01-28T08:20:42;101254.02;;;7.21;58.40
24996;BME280;13016;52.162;21.034;2023-01-28T08:23:27;101254.23;;;7.19;58.25
24996;BME280;13016;52.162;21.034;2023-01-28T08:25:52;101253.77;;;7.23;58.50
24996;BME280;13016;52.162;21.034;2023-01-28T08:28:19;101249.95;;;7.27;58.32
24996;BME280;13016;52.162;21.034;2023-01-28T08:30:46;101253.44;;;7.28;58.28
24996;BME280;13016;52.162;21.034;2023-01-28T08:33:13;101253.06;;;7.33;58.20
24996;BME280;13016;52.162;21.034;2023-01-28T08:35:39;101255.73;;;7.32;58.13
24996;BME280;13016;52.162;21.034;2023-01-28T08:38:07;101253.86;;;7.35;58.16
24996;BME280;13016;52.162;21.034;2023-01-28T08:40:33;101251.09;;;7.29;58.11
24996;BME280;13016;52.162;21.034;2023-01-28T08:42:59;101249.42;;;7.32;58.11
24996;BME280;13016;52.162;21.034;2023-01-28T08:45:25;101248.20;;;7.32;57.95
24996;BME280;13016;52.162;21.034;2023-01-28T08:47:56;101251.45;;;7.29;57.81
24996;BME280;13016;52.162;21.034;2023-01-28T08:50:23;101252.04;;;7.32;57.82
24996;BME280;13016;52.162;21.034;2023-01-28T08:52:56;101249.54;;;7.33;57.66
24996;BME280;13016;52.162;21.034;2023-01-28T08:55:26;101250.90;;;7.19;57.56
24996;BME280;13016;52.162;21.034;2023-01-28T08:57:53;101251.79;;;7.19;57.55
24996;BME280;13016;52.162;21.034;2023-01-28T09:00:35;101256.71;;;7.19;57.46
24996;BME280;13016;52.162;21.034;2023-01-28T09:03:03;101262.27;;;7.20;57.64
24996;BME280;13016;52.162;21.034;2023-01-28T09:05:28;101261.98;;;7.19;57.49
24996;BME280;13016;52.162;21.034;2023-01-28T09:07:54;101264.08;;;7.19;57.55
24996;BME280;13016;52.162;21.034;2023-01-28T09:10:20;101267.13;;;7.17;57.49
24996;BME280;13016;52.162;21.034;2023-01-28T09:12:57;101269.05;;;7.22;57.61
24996;BME280;13016;52.162;21.034;2023-01-28T09:24:15;101284.70;;;7.16;57.56
24996;BME280;13016;52.162;21.034;2023-01-28T09:26:43;101286.16;;;7.25;57.80
24996;BME280;13016;52.162;21.034;2023-01-28T09:29:42;101288.40;;;7.32;57.74
24996;BME280;13016;52.162;21.034;2023-01-28T09:46:14;101293.48;;;7.37;57.50
24996;BME280;13016;52.162;21.034;2023-01-28T10:36:40;101270.34;;;7.04;58.29
24996;BME280;13016;52.162;21.034;2023-01-28T11:03:56;101254.31;;;7.17;57.78
24996;BME280;13016;52.162;21.034;2023-01-28T12:09:11;101219.36;;;7.33;57.43
24996;BME280;13016;52.162;21.034;2023-01-28T12:17:49;101220.42;;;7.23;56.80
24996;BME280;13016;52.162;21.034;2023-01-28T12:32:07;101220.80;;;7.12;57.23
24996;BME280;13016;52.162;21.034;2023-01-28T16:50:05;101276.75;;;7.01;49.55
24996;BME280;13016;52.162;21.034;2023-01-28T16:55:56;101274.34;;;6.78;51.17
24996;BME280;13016;52.162;21.034;2023-01-28T17:16:03;101273.10;;;6.73;51.70
24996;BME280;13016;52.162;21.034;2023-01-28T17:38:24;101271.92;;;6.71;50.11
24996;BME280;13016;52.162;21.034;2023-01-28T17:54:39;101281.13;;;6.39;49.16
24996;BME280;13016;52.162;21.034;2023-01-28T18:33:15;101309.02;;;6.62;47.50
24996;BME280;13016;52.162;21.034;2023-01-28T18:36:44;101317.48;;;6.66;47.69
24996;BME280;13016;52.162;21.034;2023-01-28T19:15:14;101308.06;;;6.47;47.24
24996;BME280;13016;52.162;21.034;2023-01-28T19:40:26;101317.70;;;6.10;48.27
24996;BME280;13016;52.162;21.034;2023-01-28T19:43:07;101319.10;;;6.11;47.92
24996;BME280;13016;52.162;21.034;2023-01-28T19:45:38;101321.89;;;6.17;48.19
24996;BME280;13016;52.162;21.034;2023-01-28T19:48:03;101325.23;;;6.17;47.84
24996;BME280;13016;52.162;21.034;2023-01-28T19:50:55;101324.17;;;6.17;47.73
24996;BME280;13016;52.162;21.034;2023-01-28T19:53:22;101326.14;;;6.16;47.48
24996;BME280;13016;52.162;21.034;2023-01-28T19:55:57;101331.14;;;6.12;47.47
24996;BME280;13016;52.162;21.034;2023-01-28T19:58:44;101332.20;;;6.25;47.59
24996;BME280;13016;52.162;21.034;2023-01-28T20:01:18;101329.16;;;6.33;46.85
24996;BME280;13016;52.162;21.034;2023-01-28T20:03:55;101331.92;;;6.40;46.81
24996;BME280;13016;52.162;21.034;2023-01-28T20:06:22;101332.03;;;6.24;46.49
24996;BME280;13016;52.162;21.034;2023-01-28T20:08:53;101332.55;;;6.18;47.20
24996;BME280;13016;52.162;21.034;2023-01-28T20:11:21;101337.03;;;6.14;47.20
24996;BME280;13016;52.162;21.034;2023-01-28T20:13:56;101339.98;;;6.16;47.39
24996;BME280;13016;52.162;21.034;2023-01-28T20:16:24;101338.92;;;6.35;47.10
24996;BME280;13016;52.162;21.034;2023-01-28T20:18:55;101336.61;;;6.29;45.76
24996;BME280;13016;52.162;21.034;2023-01-28T20:21:23;101340.00;;;6.21;45.87
24996;BME280;13016;52.162;21.034;2023-01-28T20:23:50;101334.63;;;6.00;45.63
24996;BME280;13016;52.162;21.034;2023-01-28T20:26:16;101341.70;;;5.98;45.46
24996;BME280;13016;52.162;21.034;2023-01-28T20:28:42;101339.35;;;6.07;45.03
24996;BME280;13016;52.162;21.034;2023-01-28T20:31:08;101340.98;;;6.17;44.78
24996;BME280;13016;52.162;21.034;2023-01-28T20:36:14;101340.80;;;6.24;44.64
24996;BME280;13016;52.162;21.034;2023-01-28T20:38:43;101341.38;;;6.16;45.14
24996;BME280;13016;52.162;21.034;2023-01-28T20:41:48;101344.35;;;6.10;44.84
24996;BME280;13016;52.162;21.034;2023-01-28T20:44:13;101352.97;;;6.09;45.09
24996;BME280;13016;52.162;21.034;2023-01-28T20:46:38;101344.99;;;6.06;45.03
24996;BME280;13016;52.162;21.034;2023-01-28T20:49:03;101347.05;;;6.01;45.21
24996;BME280;13016;52.162;21.034;2023-01-28T20:51:31;101347.52;;;6.09;45.30
24996;BME280;13016;52.162;21.034;2023-01-28T20:53:57;101353.81;;;5.97;45.61
24996;BME280;13016;52.162;21.034;2023-01-28T20:56:24;101353.11;;;5.90;46.22
24996;BME280;13016;52.162;21.034;2023-01-28T20:58:55;101353.74;;;5.93;46.12
24996;BME280;13016;52.162;21.034;2023-01-28T21:01:30;101356.36;;;6.00;46.25
24996;BME280;13016;52.162;21.034;2023-01-28T21:03:55;101357.48;;;5.98;46.10
24996;BME280;13016;52.162;21.034;2023-01-28T21:06:22;101362.99;;;6.00;46.04
24996;BME280;13016;52.162;21.034;2023-01-28T21:08:48;101363.53;;;5.93;45.94
24996;BME280;13016;52.162;21.034;2023-01-28T21:11:13;101367.84;;;5.90;45.68
24996;BME280;13016;52.162;21.034;2023-01-28T21:13:39;101368.05;;;5.81;45.26
24996;BME280;13016;52.162;21.034;2023-01-28T21:16:05;101371.48;;;5.91;45.24
24996;BME280;13016;52.162;21.034;2023-01-28T21:18:30;101364.24;;;5.93;45.03
24996;BME280;13016;52.162;21.034;2023-01-28T21:21:05;101364.96;;;5.85;45.24
24996;BME280;13016;52.162;21.034;2023-01-28T21:23:43;101367.77;;;5.99;45.18
24996;BME280;13016;52.162;21.034;2023-01-28T21:26:08;101359.64;;;6.08;45.14
24996;BME280;13016;52.162;21.034;2023-01-28T21:28:34;101359.70;;;6.12;45.23
24996;BME280;13016;52.162;21.034;2023-01-28T21:31:13;101360.27;;;6.17;44.98
24996;BME280;13016;52.162;21.034;2023-01-28T21:33:39;101355.22;;;6.10;44.90
24996;BME280;13016;52.162;21.034;2023-01-28T21:36:12;101343.80;;;6.11;45.10
24996;BME280;13016;52.162;21.034;2023-01-28T21:38:38;101343.06;;;6.12;45.48
24996;BME280;13016;52.162;21.034;2023-01-28T21:41:04;101341.23;;;6.09;44.88
24996;BME280;13016;52.162;21.034;2023-01-28T21:43:30;101339.94;;;6.05;44.89
24996;BME280;13016;52.162;21.034;2023-01-28T21:45:56;101335.41;;;6.10;45.38
24996;BME280;13016;52.162;21.034;2023-01-28T21:48:22;101337.33;;;6.17;45.47
24996;BME280;13016;52.162;21.034;2023-01-28T21:50:47;101341.69;;;6.24;45.29
24996;BME280;13016;52.162;21.034;2023-01-28T21:53:13;101342.98;;;6.15;45.40
24996;BME280;13016;52.162;21.034;2023-01-28T21:55:43;101339.35;;;6.13;45.46
24996;BME280;13016;52.162;21.034;2023-01-28T21:58:09;101330.48;;;5.98;44.95
24996;BME280;13016;52.162;21.034;2023-01-28T22:00:34;101330.05;;;6.01;45.20
24996;BME280;13016;52.162;21.034;2023-01-28T22:02:59;101328.98;;;6.02;44.90
24996;BME280;13016;52.162;21.034;2023-01-28T22:05:24;101327.08;;;6.07;44.94
24996;BME280;13016;52.162;21.034;2023-01-28T22:07:50;101321.61;;;6.22;45.21
24996;BME280;13016;52.162;21.034;2023-01-28T22:10:15;101326.20;;;6.14;44.49
24996;BME280;13016;52.162;21.034;2023-01-28T22:12:41;101326.20;;;6.20;44.73
24996;BME280;13016;52.162;21.034;2023-01-28T22:15:06;101317.05;;;6.34;44.30
24996;BME280;13016;52.162;21.034;2023-01-28T22:17:32;101308.41;;;6.29;44.23
24996;BME280;13016;52.162;21.034;2023-01-28T22:19:57;101309.97;;;6.36;44.33
24996;BME280;13016;52.162;21.034;2023-01-28T22:22:22;101299.83;;;6.36;44.23
24996;BME280;13016;52.162;21.034;2023-01-28T22:24:47;101299.23;;;6.31;44.19
24996;BME280;13016;52.162;21.034;2023-01-28T22:27:12;101298.81;;;6.21;44.00
24996;BME280;13016;52.162;21.034;2023-01-28T22:29:38;101301.72;;;6.30;44.39
24996;BME280;13016;52.162;21.034;2023-01-28T22:32:03;101299.14;;;6.35;44.27
24996;BME280;13016;52.162;21.034;2023-01-28T22:34:29;101302.60;;;6.30;44.01
24996;BME280;13016;52.162;21.034;2023-01-28T22:36:54;101300.63;;;6.26;43.48
24996;BME280;13016;52.162;21.034;2023-01-28T22:39:19;101302.30;;;6.16;43.65
24996;BME280;13016;52.162;21.034;2023-01-28T22:41:45;101299.73;;;6.26;43.77
24996;BME280;13016;52.162;21.034;2023-01-28T22:44:11;101300.89;;;6.29;43.90
24996;BME280;13016;52.162;21.034;2023-01-28T22:46:36;101308.38;;;6.25;43.67
24996;BME280;13016;52.162;21.034;2023-01-28T22:49:02;101308.34;;;6.07;43.70
24996;BME280;13016;52.162;21.034;2023-01-28T22:51:30;101314.46;;;6.07;44.13
24996;BME280;13016;52.162;21.034;2023-01-28T22:53:56;101317.86;;;6.11;44.29
24996;BME280;13016;52.162;21.034;2023-01-28T22:56:24;101318.34;;;6.13;44.35
24996;BME280;13016;52.162;21.034;2023-01-28T22:58:54;101318.48;;;6.14;44.54